MMTP/TAP METAR and TAF weather

Enter ICAO airport designator
Station Type Date Time Source
MMTP METAR 2019/08/20 08:43 UTC NOAA

MMTP 200843Z 00000KT 8SM BKN040 OVC140 23/23 A2985 RMK SLP032 57020 914 8/46/


Station Type Date Time Source
MMTP Decoded METAR 2019/08/20 08:43 UTC NOAA

Tapachula , Mexico (MMTP) 14-47N 092-23W
Aug 20, 2019 - 04:43 AM EDT / 2019.08.20 0843 UTC
Wind: Calm:0
Visibility: 8 mile(s):0
Sky conditions: overcast
Temperature: 73 F (23 C)
Dew Point: 73 F (23 C)
Relative Humidity: 100%
Pressure (altimeter): 29.85 in. Hg (1010 hPa)
Pressure tendency: 0.06 inches (2.0 hPa) lower than three hours ago
ob: MMTP 200843Z 00000KT 8SM BKN040 OVC140 23/23 A2985 RMK SLP032 57020 914 8/46/
cycle: 8

Station Type Date Time Source
MMTP TAF 2019/08/20 06:42 UTC NOAA

TAF MMTP 200540Z 2006/2112 36004KT P6SM BKN030 OVC120
TEMPO 2006/2010 5SM -RA
FM201800 24008KT P6SM SCT020 BKN080 BKN220 PROB40 2022/2002 4SM TSRA BKN020CB
FM210700 03005KT P6SM SCT025 BKN090 OVC230

Example: see airport list